sensor_id;sensor_type;location;lat;lon;timestamp;P1;durP1;ratioP1;P2;durP2;ratioP2
41233;SDS011;26968;42.686;23.352;2023-12-04T05:02:47;16.92;;;7.65;;
41233;SDS011;26968;42.686;23.352;2023-12-04T05:05:12;15.57;;;7.65;;
41233;SDS011;26968;42.686;23.352;2023-12-04T05:07:38;15.05;;;7.50;;
41233;SDS011;26968;42.686;23.352;2023-12-04T05:10:04;16.83;;;7.90;;
41233;SDS011;26968;42.686;23.352;2023-12-04T05:12:29;19.13;;;8.43;;
41233;SDS011;26968;42.686;23.352;2023-12-04T05:14:55;15.65;;;7.78;;
41233;SDS011;26968;42.686;23.352;2023-12-04T05:17:20;13.70;;;8.20;;
41233;SDS011;26968;42.686;23.352;2023-12-04T05:19:47;18.88;;;9.10;;
41233;SDS011;26968;42.686;23.352;2023-12-04T05:22:13;18.50;;;8.10;;
41233;SDS011;26968;42.686;23.352;2023-12-04T05:24:39;16.65;;;8.20;;
41233;SDS011;26968;42.686;23.352;2023-12-04T05:27:05;18.30;;;9.57;;
41233;SDS011;26968;42.686;23.352;2023-12-04T05:29:32;20.55;;;9.48;;
41233;SDS011;26968;42.686;23.352;2023-12-04T05:31:57;16.08;;;8.57;;
41233;SDS011;26968;42.686;23.352;2023-12-04T05:34:23;19.17;;;9.57;;
41233;SDS011;26968;42.686;23.352;2023-12-04T05:36:49;18.58;;;9.52;;
41233;SDS011;26968;42.686;23.352;2023-12-04T05:39:14;18.63;;;8.98;;
41233;SDS011;26968;42.686;23.352;2023-12-04T05:41:40;21.65;;;10.02;;
41233;SDS011;26968;42.686;23.352;2023-12-04T05:44:05;19.48;;;8.52;;
41233;SDS011;26968;42.686;23.352;2023-12-04T05:46:31;18.98;;;9.23;;
41233;SDS011;26968;42.686;23.352;2023-12-04T05:48:57;20.30;;;9.65;;
41233;SDS011;26968;42.686;23.352;2023-12-04T05:51:23;20.95;;;9.50;;
41233;SDS011;26968;42.686;23.352;2023-12-04T05:53:48;18.60;;;8.88;;
41233;SDS011;26968;42.686;23.352;2023-12-04T05:56:14;16.95;;;7.95;;
41233;SDS011;26968;42.686;23.352;2023-12-04T05:58:39;20.08;;;8.75;;
41233;SDS011;26968;42.686;23.352;2023-12-04T06:01:05;17.60;;;8.90;;
41233;SDS011;26968;42.686;23.352;2023-12-04T06:03:31;18.23;;;9.13;;
41233;SDS011;26968;42.686;23.352;2023-12-04T06:05:57;18.02;;;8.65;;
41233;SDS011;26968;42.686;23.352;2023-12-04T06:08:23;16.98;;;9.10;;
41233;SDS011;26968;42.686;23.352;2023-12-04T06:10:48;22.75;;;8.65;;
41233;SDS011;26968;42.686;23.352;2023-12-04T06:13:14;22.35;;;10.70;;
41233;SDS011;26968;42.686;23.352;2023-12-04T06:15:39;18.35;;;8.63;;
41233;SDS011;26968;42.686;23.352;2023-12-04T06:18:05;25.52;;;10.63;;
41233;SDS011;26968;42.686;23.352;2023-12-04T06:20:30;17.42;;;9.05;;
41233;SDS011;26968;42.686;23.352;2023-12-04T06:22:56;19.63;;;9.23;;
41233;SDS011;26968;42.686;23.352;2023-12-04T06:25:22;19.30;;;9.48;;
41233;SDS011;26968;42.686;23.352;2023-12-04T06:27:48;17.48;;;9.55;;
41233;SDS011;26968;42.686;23.352;2023-12-04T06:30:14;19.92;;;10.02;;
41233;SDS011;26968;42.686;23.352;2023-12-04T06:32:40;18.27;;;9.55;;
41233;SDS011;26968;42.686;23.352;2023-12-04T06:35:06;18.90;;;8.77;;
41233;SDS011;26968;42.686;23.352;2023-12-04T06:37:32;20.98;;;9.98;;
41233;SDS011;26968;42.686;23.352;2023-12-04T06:39:59;19.50;;;10.50;;
41233;SDS011;26968;42.686;23.352;2023-12-04T06:42:27;15.57;;;8.95;;
41233;SDS011;26968;42.686;23.352;2023-12-04T06:44:53;22.38;;;9.70;;
41233;SDS011;26968;42.686;23.352;2023-12-04T06:47:20;23.48;;;10.32;;
41233;SDS011;26968;42.686;23.352;2023-12-04T06:49:48;22.48;;;9.50;;
41233;SDS011;26968;42.686;23.352;2023-12-04T06:52:13;19.48;;;8.63;;
41233;SDS011;26968;42.686;23.352;2023-12-04T06:54:39;19.55;;;8.65;;
41233;SDS011;26968;42.686;23.352;2023-12-04T06:57:04;17.65;;;8.98;;
41233;SDS011;26968;42.686;23.352;2023-12-04T06:59:30;19.48;;;9.57;;
41233;SDS011;26968;42.686;23.352;2023-12-04T07:01:55;15.63;;;8.25;;
41233;SDS011;26968;42.686;23.352;2023-12-04T07:04:21;18.45;;;8.90;;
41233;SDS011;26968;42.686;23.352;2023-12-04T07:06:47;16.40;;;8.45;;
41233;SDS011;26968;42.686;23.352;2023-12-04T07:09:13;16.02;;;8.93;;
41233;SDS011;26968;42.686;23.352;2023-12-04T07:11:39;18.65;;;9.02;;
41233;SDS011;26968;42.686;23.352;2023-12-04T07:14:05;16.92;;;8.40;;
41233;SDS011;26968;42.686;23.352;2023-12-04T07:16:30;19.40;;;8.90;;
41233;SDS011;26968;42.686;23.352;2023-12-04T07:18:56;28.60;;;9.85;;
41233;SDS011;26968;42.686;23.352;2023-12-04T07:21:21;18.83;;;9.15;;
41233;SDS011;26968;42.686;23.352;2023-12-04T07:23:47;19.55;;;9.15;;
41233;SDS011;26968;42.686;23.352;2023-12-04T07:26:12;21.35;;;8.85;;
41233;SDS011;26968;42.686;23.352;2023-12-04T07:28:38;19.23;;;10.13;;
41233;SDS011;26968;42.686;23.352;2023-12-04T07:31:04;19.40;;;8.50;;
41233;SDS011;26968;42.686;23.352;2023-12-04T07:33:29;17.92;;;9.18;;
41233;SDS011;26968;42.686;23.352;2023-12-04T07:35:55;16.15;;;8.63;;
41233;SDS011;26968;42.686;23.352;2023-12-04T07:38:21;18.95;;;9.00;;
41233;SDS011;26968;42.686;23.352;2023-12-04T07:40:47;19.50;;;9.52;;
41233;SDS011;26968;42.686;23.352;2023-12-04T07:43:12;16.00;;;9.00;;
41233;SDS011;26968;42.686;23.352;2023-12-04T07:45:39;19.02;;;8.52;;
41233;SDS011;26968;42.686;23.352;2023-12-04T07:48:05;13.63;;;7.53;;
41233;SDS011;26968;42.686;23.352;2023-12-04T07:50:31;14.65;;;7.90;;
41233;SDS011;26968;42.686;23.352;2023-12-04T07:52:56;14.13;;;7.90;;
41233;SDS011;26968;42.686;23.352;2023-12-04T07:55:22;17.98;;;8.93;;
41233;SDS011;26968;42.686;23.352;2023-12-04T07:57:47;17.58;;;9.35;;
41233;SDS011;26968;42.686;23.352;2023-12-04T08:00:13;17.42;;;8.30;;
41233;SDS011;26968;42.686;23.352;2023-12-04T08:02:39;17.10;;;7.25;;
41233;SDS011;26968;42.686;23.352;2023-12-04T08:05:10;18.25;;;8.00;;
41233;SDS011;26968;42.686;23.352;2023-12-04T08:07:35;13.65;;;7.13;;
41233;SDS011;26968;42.686;23.352;2023-12-04T08:10:01;14.45;;;7.00;;
41233;SDS011;26968;42.686;23.352;2023-12-04T08:12:29;14.45;;;6.90;;
41233;SDS011;26968;42.686;23.352;2023-12-04T08:14:55;13.23;;;6.50;;
41233;SDS011;26968;42.686;23.352;2023-12-04T08:17:20;16.13;;;6.75;;
41233;SDS011;26968;42.686;23.352;2023-12-04T08:19:47;16.63;;;6.68;;
41233;SDS011;26968;42.686;23.352;2023-12-04T08:22:13;15.93;;;8.15;;
41233;SDS011;26968;42.686;23.352;2023-12-04T08:24:45;15.77;;;8.13;;
41233;SDS011;26968;42.686;23.352;2023-12-04T08:27:10;12.23;;;6.47;;
41233;SDS011;26968;42.686;23.352;2023-12-04T08:29:36;16.15;;;6.95;;
41233;SDS011;26968;42.686;23.352;2023-12-04T08:32:01;14.25;;;6.95;;
41233;SDS011;26968;42.686;23.352;2023-12-04T08:34:27;15.00;;;7.32;;
41233;SDS011;26968;42.686;23.352;2023-12-04T08:36:53;12.35;;;6.47;;
41233;SDS011;26968;42.686;23.352;2023-12-04T08:39:19;14.18;;;7.20;;
41233;SDS011;26968;42.686;23.352;2023-12-04T08:41:45;13.73;;;6.78;;
41233;SDS011;26968;42.686;23.352;2023-12-04T08:44:12;12.60;;;7.40;;
41233;SDS011;26968;42.686;23.352;2023-12-04T08:46:38;12.75;;;7.28;;
41233;SDS011;26968;42.686;23.352;2023-12-04T08:49:03;12.35;;;7.18;;
41233;SDS011;26968;42.686;23.352;2023-12-04T08:51:29;11.48;;;5.90;;
41233;SDS011;26968;42.686;23.352;2023-12-04T08:53:55;11.18;;;6.13;;
41233;SDS011;26968;42.686;23.352;2023-12-04T08:56:21;18.52;;;7.88;;
41233;SDS011;26968;42.686;23.352;2023-12-04T08:58:47;13.40;;;6.03;;
41233;SDS011;26968;42.686;23.352;2023-12-04T09:01:15;13.82;;;6.35;;
41233;SDS011;26968;42.686;23.352;2023-12-04T09:03:43;12.98;;;7.15;;
41233;SDS011;26968;42.686;23.352;2023-12-04T09:06:09;13.05;;;6.53;;
41233;SDS011;26968;42.686;23.352;2023-12-04T09:08:35;15.48;;;6.85;;
41233;SDS011;26968;42.686;23.352;2023-12-04T09:11:00;22.95;;;7.70;;
41233;SDS011;26968;42.686;23.352;2023-12-04T09:13:26;13.50;;;6.78;;
41233;SDS011;26968;42.686;23.352;2023-12-04T09:15:52;14.73;;;6.78;;
41233;SDS011;26968;42.686;23.352;2023-12-04T09:18:18;12.13;;;6.32;;
41233;SDS011;26968;42.686;23.352;2023-12-04T09:20:43;16.02;;;6.85;;
41233;SDS011;26968;42.686;23.352;2023-12-04T09:23:09;11.68;;;6.90;;
41233;SDS011;26968;42.686;23.352;2023-12-04T09:25:35;11.48;;;6.32;;
41233;SDS011;26968;42.686;23.352;2023-12-04T09:28:00;12.25;;;6.15;;
41233;SDS011;26968;42.686;23.352;2023-12-04T09:30:26;13.85;;;7.07;;
41233;SDS011;26968;42.686;23.352;2023-12-04T09:32:51;12.52;;;6.68;;
41233;SDS011;26968;42.686;23.352;2023-12-04T09:35:17;18.27;;;7.97;;
41233;SDS011;26968;42.686;23.352;2023-12-04T09:37:43;23.33;;;10.27;;
41233;SDS011;26968;42.686;23.352;2023-12-04T09:40:08;20.88;;;10.18;;
41233;SDS011;26968;42.686;23.352;2023-12-04T09:42:35;18.83;;;8.88;;
41233;SDS011;26968;42.686;23.352;2023-12-04T09:45:02;16.08;;;5.97;;
41233;SDS011;26968;42.686;23.352;2023-12-04T09:47:29;16.33;;;6.68;;
41233;SDS011;26968;42.686;23.352;2023-12-04T09:49:58;23.38;;;7.45;;
41233;SDS011;26968;42.686;23.352;2023-12-04T09:52:24;12.52;;;6.97;;
41233;SDS011;26968;42.686;23.352;2023-12-04T09:54:52;17.58;;;7.28;;
41233;SDS011;26968;42.686;23.352;2023-12-04T09:57:18;17.48;;;7.38;;
41233;SDS011;26968;42.686;23.352;2023-12-04T09:59:44;14.30;;;6.50;;
41233;SDS011;26968;42.686;23.352;2023-12-04T10:02:11;18.15;;;5.90;;
41233;SDS011;26968;42.686;23.352;2023-12-04T10:04:36;13.23;;;7.22;;
41233;SDS011;26968;42.686;23.352;2023-12-04T10:07:05;14.07;;;7.00;;
41233;SDS011;26968;42.686;23.352;2023-12-04T10:09:30;15.90;;;7.57;;
41233;SDS011;26968;42.686;23.352;2023-12-04T10:11:56;13.45;;;7.03;;
41233;SDS011;26968;42.686;23.352;2023-12-04T10:14:22;15.73;;;7.35;;
41233;SDS011;26968;42.686;23.352;2023-12-04T10:16:48;16.70;;;7.50;;
41233;SDS011;26968;42.686;23.352;2023-12-04T10:19:22;14.10;;;6.78;;
41233;SDS011;26968;42.686;23.352;2023-12-04T10:21:57;12.43;;;6.95;;
41233;SDS011;26968;42.686;23.352;2023-12-04T10:27:06;14.60;;;7.35;;
41233;SDS011;26968;42.686;23.352;2023-12-04T10:29:44;15.43;;;7.32;;
41233;SDS011;26968;42.686;23.352;2023-12-04T10:32:10;13.55;;;7.30;;
41233;SDS011;26968;42.686;23.352;2023-12-04T10:34:37;12.85;;;7.32;;
41233;SDS011;26968;42.686;23.352;2023-12-04T10:37:03;12.70;;;6.40;;
41233;SDS011;26968;42.686;23.352;2023-12-04T10:39:30;15.70;;;8.35;;
41233;SDS011;26968;42.686;23.352;2023-12-04T10:42:02;15.65;;;7.05;;
41233;SDS011;26968;42.686;23.352;2023-12-04T10:44:29;12.57;;;7.43;;
41233;SDS011;26968;42.686;23.352;2023-12-04T10:46:56;13.77;;;7.68;;
41233;SDS011;26968;42.686;23.352;2023-12-04T10:49:26;16.55;;;7.20;;
41233;SDS011;26968;42.686;23.352;2023-12-04T10:51:54;15.80;;;8.23;;
41233;SDS011;26968;42.686;23.352;2023-12-04T10:54:22;14.57;;;8.35;;
41233;SDS011;26968;42.686;23.352;2023-12-04T10:56:48;18.42;;;8.27;;
41233;SDS011;26968;42.686;23.352;2023-12-04T10:59:18;17.27;;;8.52;;
41233;SDS011;26968;42.686;23.352;2023-12-04T11:01:51;15.55;;;7.80;;
41233;SDS011;26968;42.686;23.352;2023-12-04T11:04:21;18.42;;;8.02;;
41233;SDS011;26968;42.686;23.352;2023-12-04T11:06:52;16.98;;;7.85;;
41233;SDS011;26968;42.686;23.352;2023-12-04T11:09:20;15.02;;;7.95;;
41233;SDS011;26968;42.686;23.352;2023-12-04T11:11:48;19.05;;;8.38;;
41233;SDS011;26968;42.686;23.352;2023-12-04T11:14:19;14.63;;;8.07;;
41233;SDS011;26968;42.686;23.352;2023-12-04T11:16:48;13.18;;;7.57;;
41233;SDS011;26968;42.686;23.352;2023-12-04T11:19:30;12.95;;;7.47;;
41233;SDS011;26968;42.686;23.352;2023-12-04T11:22:07;17.00;;;8.35;;
41233;SDS011;26968;42.686;23.352;2023-12-04T11:24:35;14.88;;;8.32;;
41233;SDS011;26968;42.686;23.352;2023-12-04T11:27:01;32.97;;;11.35;;
41233;SDS011;26968;42.686;23.352;2023-12-04T11:29:31;15.57;;;9.00;;
41233;SDS011;26968;42.686;23.352;2023-12-04T11:31:58;18.70;;;8.85;;
41233;SDS011;26968;42.686;23.352;2023-12-04T11:34:24;16.48;;;8.40;;
41233;SDS011;26968;42.686;23.352;2023-12-04T11:36:50;13.52;;;7.88;;
41233;SDS011;26968;42.686;23.352;2023-12-04T11:39:18;14.52;;;8.15;;
41233;SDS011;26968;42.686;23.352;2023-12-04T11:41:44;17.40;;;9.80;;
41233;SDS011;26968;42.686;23.352;2023-12-04T11:44:14;19.23;;;9.57;;
41233;SDS011;26968;42.686;23.352;2023-12-04T11:46:41;16.17;;;8.52;;
41233;SDS011;26968;42.686;23.352;2023-12-04T11:49:28;12.98;;;6.53;;
41233;SDS011;26968;42.686;23.352;2023-12-04T11:51:55;9.63;;;6.03;;
41233;SDS011;26968;42.686;23.352;2023-12-04T11:54:22;16.42;;;8.15;;
41233;SDS011;26968;42.686;23.352;2023-12-04T11:56:57;14.70;;;7.43;;
41233;SDS011;26968;42.686;23.352;2023-12-04T11:59:38;11.93;;;7.00;;
41233;SDS011;26968;42.686;23.352;2023-12-04T12:02:08;15.38;;;8.25;;
41233;SDS011;26968;42.686;23.352;2023-12-04T12:04:34;14.00;;;8.15;;
41233;SDS011;26968;42.686;23.352;2023-12-04T12:07:00;18.33;;;8.88;;
41233;SDS011;26968;42.686;23.352;2023-12-04T12:09:30;12.00;;;7.20;;
41233;SDS011;26968;42.686;23.352;2023-12-04T12:11:59;15.35;;;8.18;;
41233;SDS011;26968;42.686;23.352;2023-12-04T12:14:28;16.23;;;8.35;;
41233;SDS011;26968;42.686;23.352;2023-12-04T12:16:55;20.50;;;9.20;;
41233;SDS011;26968;42.686;23.352;2023-12-04T12:19:23;14.15;;;8.75;;
41233;SDS011;26968;42.686;23.352;2023-12-04T12:21:49;18.52;;;8.35;;
41233;SDS011;26968;42.686;23.352;2023-12-04T12:24:16;17.90;;;8.52;;
41233;SDS011;26968;42.686;23.352;2023-12-04T12:26:45;21.08;;;9.68;;
41233;SDS011;26968;42.686;23.352;2023-12-04T12:29:11;17.15;;;9.65;;
41233;SDS011;26968;42.686;23.352;2023-12-04T12:31:37;19.10;;;9.13;;
41233;SDS011;26968;42.686;23.352;2023-12-04T12:34:03;16.70;;;8.68;;
41233;SDS011;26968;42.686;23.352;2023-12-04T12:36:29;20.98;;;8.93;;
41233;SDS011;26968;42.686;23.352;2023-12-04T12:38:59;19.55;;;8.55;;
41233;SDS011;26968;42.686;23.352;2023-12-04T12:41:25;22.80;;;10.18;;
41233;SDS011;26968;42.686;23.352;2023-12-04T12:43:54;23.13;;;12.25;;
41233;SDS011;26968;42.686;23.352;2023-12-04T12:46:21;32.55;;;13.80;;
41233;SDS011;26968;42.686;23.352;2023-12-04T12:48:47;29.92;;;15.25;;
41233;SDS011;26968;42.686;23.352;2023-12-04T12:51:13;27.50;;;14.00;;
41233;SDS011;26968;42.686;23.352;2023-12-04T12:53:38;23.48;;;12.70;;
41233;SDS011;26968;42.686;23.352;2023-12-04T12:56:04;23.80;;;13.02;;
41233;SDS011;26968;42.686;23.352;2023-12-04T12:58:31;28.98;;;13.38;;
41233;SDS011;26968;42.686;23.352;2023-12-04T13:00:56;26.73;;;13.75;;
41233;SDS011;26968;42.686;23.352;2023-12-04T13:03:22;32.47;;;12.90;;
41233;SDS011;26968;42.686;23.352;2023-12-04T13:05:48;24.55;;;13.25;;
41233;SDS011;26968;42.686;23.352;2023-12-04T13:08:14;33.45;;;14.65;;
41233;SDS011;26968;42.686;23.352;2023-12-04T13:10:40;27.42;;;13.75;;
41233;SDS011;26968;42.686;23.352;2023-12-04T13:13:13;24.45;;;13.52;;
41233;SDS011;26968;42.686;23.352;2023-12-04T13:15:39;23.30;;;13.38;;
41233;SDS011;26968;42.686;23.352;2023-12-04T13:18:06;35.03;;;14.18;;
41233;SDS011;26968;42.686;23.352;2023-12-04T13:20:32;24.98;;;14.40;;
41233;SDS011;26968;42.686;23.352;2023-12-04T13:22:59;28.85;;;14.05;;
41233;SDS011;26968;42.686;23.352;2023-12-04T13:25:25;27.13;;;14.20;;
41233;SDS011;26968;42.686;23.352;2023-12-04T13:27:51;35.55;;;14.75;;
41233;SDS011;26968;42.686;23.352;2023-12-04T13:30:16;25.77;;;13.05;;
41233;SDS011;26968;42.686;23.352;2023-12-04T13:32:42;32.63;;;13.38;;
41233;SDS011;26968;42.686;23.352;2023-12-04T13:35:08;27.58;;;13.88;;
41233;SDS011;26968;42.686;23.352;2023-12-04T13:37:34;26.30;;;11.85;;
41233;SDS011;26968;42.686;23.352;2023-12-04T13:40:02;30.45;;;13.07;;
41233;SDS011;26968;42.686;23.352;2023-12-04T13:42:37;26.02;;;13.00;;
41233;SDS011;26968;42.686;23.352;2023-12-04T13:45:21;29.73;;;12.60;;
41233;SDS011;26968;42.686;23.352;2023-12-04T13:47:48;28.35;;;11.90;;
41233;SDS011;26968;42.686;23.352;2023-12-04T13:50:14;24.92;;;12.23;;
41233;SDS011;26968;42.686;23.352;2023-12-04T13:52:39;23.80;;;11.63;;
41233;SDS011;26968;42.686;23.352;2023-12-04T13:55:07;41.90;;;13.13;;
41233;SDS011;26968;42.686;23.352;2023-12-04T13:57:56;23.02;;;10.25;;
41233;SDS011;26968;42.686;23.352;2023-12-04T14:00:34;30.35;;;12.13;;
41233;SDS011;26968;42.686;23.352;2023-12-04T14:02:59;30.55;;;12.50;;
41233;SDS011;26968;42.686;23.352;2023-12-04T14:05:29;32.00;;;12.70;;
41233;SDS011;26968;42.686;23.352;2023-12-04T14:07:55;26.95;;;11.90;;
41233;SDS011;26968;42.686;23.352;2023-12-04T14:10:21;23.77;;;11.88;;
41233;SDS011;26968;42.686;23.352;2023-12-04T14:12:47;24.30;;;12.13;;
41233;SDS011;26968;42.686;23.352;2023-12-04T14:15:13;21.65;;;10.63;;
41233;SDS011;26968;42.686;23.352;2023-12-04T14:17:39;37.88;;;12.05;;
41233;SDS011;26968;42.686;23.352;2023-12-04T14:20:05;24.35;;;10.40;;
41233;SDS011;26968;42.686;23.352;2023-12-04T14:22:37;21.67;;;10.65;;
41233;SDS011;26968;42.686;23.352;2023-12-04T14:25:06;26.45;;;11.13;;
41233;SDS011;26968;42.686;23.352;2023-12-04T14:27:32;30.88;;;11.30;;
41233;SDS011;26968;42.686;23.352;2023-12-04T14:30:01;25.02;;;9.52;;
41233;SDS011;26968;42.686;23.352;2023-12-04T14:32:28;20.20;;;9.38;;
41233;SDS011;26968;42.686;23.352;2023-12-04T14:34:57;23.00;;;11.00;;
41233;SDS011;26968;42.686;23.352;2023-12-04T14:37:23;19.67;;;10.25;;
41233;SDS011;26968;42.686;23.352;2023-12-04T14:39:48;20.98;;;9.82;;
41233;SDS011;26968;42.686;23.352;2023-12-04T14:42:14;19.48;;;9.48;;
41233;SDS011;26968;42.686;23.352;2023-12-04T14:44:39;18.70;;;9.60;;
41233;SDS011;26968;42.686;23.352;2023-12-04T14:47:05;26.30;;;11.15;;
41233;SDS011;26968;42.686;23.352;2023-12-04T14:49:33;22.20;;;10.43;;
41233;SDS011;26968;42.686;23.352;2023-12-04T14:51:59;23.42;;;11.20;;
41233;SDS011;26968;42.686;23.352;2023-12-04T14:54:26;22.35;;;11.48;;
41233;SDS011;26968;42.686;23.352;2023-12-04T14:57:11;29.35;;;12.68;;
41233;SDS011;26968;42.686;23.352;2023-12-04T14:59:55;29.35;;;12.48;;
41233;SDS011;26968;42.686;23.352;2023-12-04T15:02:38;27.38;;;12.45;;
41233;SDS011;26968;42.686;23.352;2023-12-04T15:05:04;30.15;;;13.98;;
41233;SDS011;26968;42.686;23.352;2023-12-04T15:07:29;35.67;;;14.07;;
41233;SDS011;26968;42.686;23.352;2023-12-04T15:10:18;30.75;;;13.88;;
41233;SDS011;26968;42.686;23.352;2023-12-04T15:13:07;27.70;;;12.75;;
41233;SDS011;26968;42.686;23.352;2023-12-04T15:15:39;30.13;;;13.20;;
41233;SDS011;26968;42.686;23.352;2023-12-04T15:18:24;22.10;;;10.52;;
41233;SDS011;26968;42.686;23.352;2023-12-04T15:21:08;25.38;;;11.23;;
41233;SDS011;26968;42.686;23.352;2023-12-04T15:23:34;26.15;;;12.90;;
41233;SDS011;26968;42.686;23.352;2023-12-04T15:26:00;22.20;;;10.77;;
41233;SDS011;26968;42.686;23.352;2023-12-04T15:28:26;23.38;;;11.40;;
41233;SDS011;26968;42.686;23.352;2023-12-04T15:30:52;30.73;;;14.68;;
41233;SDS011;26968;42.686;23.352;2023-12-04T15:33:18;30.98;;;13.68;;
41233;SDS011;26968;42.686;23.352;2023-12-04T15:35:45;25.88;;;13.82;;
41233;SDS011;26968;42.686;23.352;2023-12-04T15:38:11;32.65;;;13.40;;
41233;SDS011;26968;42.686;23.352;2023-12-04T15:40:36;41.50;;;14.73;;
41233;SDS011;26968;42.686;23.352;2023-12-04T15:43:02;45.72;;;14.77;;
41233;SDS011;26968;42.686;23.352;2023-12-04T15:45:27;32.40;;;13.50;;
41233;SDS011;26968;42.686;23.352;2023-12-04T15:47:53;33.75;;;14.35;;
41233;SDS011;26968;42.686;23.352;2023-12-04T15:50:19;45.53;;;14.05;;
41233;SDS011;26968;42.686;23.352;2023-12-04T15:52:47;30.08;;;13.57;;
41233;SDS011;26968;42.686;23.352;2023-12-04T15:55:13;30.50;;;14.38;;
41233;SDS011;26968;42.686;23.352;2023-12-04T15:57:39;29.25;;;13.65;;
41233;SDS011;26968;42.686;23.352;2023-12-04T16:00:05;33.70;;;15.32;;
41233;SDS011;26968;42.686;23.352;2023-12-04T16:02:40;33.53;;;15.27;;
41233;SDS011;26968;42.686;23.352;2023-12-04T16:05:07;29.70;;;13.10;;
41233;SDS011;26968;42.686;23.352;2023-12-04T16:07:36;35.05;;;13.85;;
41233;SDS011;26968;42.686;23.352;2023-12-04T16:10:01;25.73;;;13.13;;
41233;SDS011;26968;42.686;23.352;2023-12-04T16:12:27;30.73;;;14.25;;
41233;SDS011;26968;42.686;23.352;2023-12-04T16:14:53;29.85;;;13.52;;
41233;SDS011;26968;42.686;23.352;2023-12-04T16:17:18;29.25;;;12.88;;
41233;SDS011;26968;42.686;23.352;2023-12-04T16:19:46;35.67;;;13.48;;
41233;SDS011;26968;42.686;23.352;2023-12-04T16:22:14;32.05;;;12.50;;
41233;SDS011;26968;42.686;23.352;2023-12-04T16:24:40;27.70;;;13.30;;
41233;SDS011;26968;42.686;23.352;2023-12-04T16:27:06;25.02;;;11.95;;
41233;SDS011;26968;42.686;23.352;2023-12-04T16:29:32;32.95;;;13.82;;
41233;SDS011;26968;42.686;23.352;2023-12-04T16:32:00;37.55;;;14.85;;
41233;SDS011;26968;42.686;23.352;2023-12-04T16:34:26;27.77;;;13.55;;
41233;SDS011;26968;42.686;23.352;2023-12-04T16:36:52;33.90;;;14.63;;
41233;SDS011;26968;42.686;23.352;2023-12-04T16:39:18;28.67;;;14.20;;
41233;SDS011;26968;42.686;23.352;2023-12-04T16:41:45;36.08;;;13.93;;
41233;SDS011;26968;42.686;23.352;2023-12-04T16:44:12;27.83;;;13.52;;
41233;SDS011;26968;42.686;23.352;2023-12-04T16:46:43;34.78;;;14.80;;
41233;SDS011;26968;42.686;23.352;2023-12-04T16:49:09;36.22;;;15.07;;
41233;SDS011;26968;42.686;23.352;2023-12-04T16:51:35;35.47;;;16.25;;
41233;SDS011;26968;42.686;23.352;2023-12-04T16:54:00;41.83;;;15.98;;
41233;SDS011;26968;42.686;23.352;2023-12-04T16:56:26;32.97;;;15.68;;
41233;SDS011;26968;42.686;23.352;2023-12-04T16:58:51;33.72;;;14.95;;
41233;SDS011;26968;42.686;23.352;2023-12-04T17:01:20;33.70;;;15.57;;
41233;SDS011;26968;42.686;23.352;2023-12-04T17:03:46;34.05;;;14.63;;
41233;SDS011;26968;42.686;23.352;2023-12-04T17:06:11;29.23;;;14.32;;
41233;SDS011;26968;42.686;23.352;2023-12-04T17:08:37;39.47;;;16.02;;
41233;SDS011;26968;42.686;23.352;2023-12-04T17:11:03;46.97;;;19.13;;
41233;SDS011;26968;42.686;23.352;2023-12-04T17:13:31;43.28;;;17.40;;
41233;SDS011;26968;42.686;23.352;2023-12-04T17:15:57;44.33;;;18.05;;
41233;SDS011;26968;42.686;23.352;2023-12-04T17:18:22;37.58;;;16.17;;
41233;SDS011;26968;42.686;23.352;2023-12-04T17:20:48;35.85;;;16.02;;
41233;SDS011;26968;42.686;23.352;2023-12-04T17:23:14;44.75;;;16.98;;
41233;SDS011;26968;42.686;23.352;2023-12-04T17:25:40;46.53;;;16.52;;
41233;SDS011;26968;42.686;23.352;2023-12-04T17:28:06;40.78;;;17.60;;
41233;SDS011;26968;42.686;23.352;2023-12-04T17:30:31;37.90;;;17.70;;
41233;SDS011;26968;42.686;23.352;2023-12-04T17:32:57;43.00;;;18.35;;
41233;SDS011;26968;42.686;23.352;2023-12-04T17:35:24;42.58;;;17.33;;
41233;SDS011;26968;42.686;23.352;2023-12-04T17:37:51;45.17;;;17.73;;
41233;SDS011;26968;42.686;23.352;2023-12-04T17:40:17;49.90;;;19.38;;
41233;SDS011;26968;42.686;23.352;2023-12-04T17:42:44;38.75;;;18.17;;
41233;SDS011;26968;42.686;23.352;2023-12-04T17:45:09;41.47;;;17.30;;
41233;SDS011;26968;42.686;23.352;2023-12-04T17:47:36;41.60;;;17.85;;
41233;SDS011;26968;42.686;23.352;2023-12-04T17:50:02;39.97;;;18.38;;
41233;SDS011;26968;42.686;23.352;2023-12-04T17:52:27;47.15;;;19.45;;
41233;SDS011;26968;42.686;23.352;2023-12-04T17:54:53;52.42;;;20.13;;
41233;SDS011;26968;42.686;23.352;2023-12-04T17:57:19;53.15;;;20.58;;
41233;SDS011;26968;42.686;23.352;2023-12-04T17:59:45;74.38;;;24.52;;
41233;SDS011;26968;42.686;23.352;2023-12-04T18:02:11;58.33;;;21.58;;
41233;SDS011;26968;42.686;23.352;2023-12-04T18:04:36;54.65;;;20.67;;
41233;SDS011;26968;42.686;23.352;2023-12-04T18:07:03;55.35;;;20.83;;
41233;SDS011;26968;42.686;23.352;2023-12-04T18:09:30;66.35;;;22.15;;
41233;SDS011;26968;42.686;23.352;2023-12-04T18:11:56;52.90;;;20.58;;
41233;SDS011;26968;42.686;23.352;2023-12-04T18:14:22;53.25;;;21.63;;
41233;SDS011;26968;42.686;23.352;2023-12-04T18:16:48;49.47;;;20.25;;
41233;SDS011;26968;42.686;23.352;2023-12-04T18:19:14;42.20;;;19.13;;
41233;SDS011;26968;42.686;23.352;2023-12-04T18:21:40;38.60;;;18.30;;
41233;SDS011;26968;42.686;23.352;2023-12-04T18:24:05;44.13;;;17.88;;
41233;SDS011;26968;42.686;23.352;2023-12-04T18:26:31;38.85;;;16.55;;
41233;SDS011;26968;42.686;23.352;2023-12-04T18:28:57;47.55;;;18.27;;
41233;SDS011;26968;42.686;23.352;2023-12-04T18:31:22;56.40;;;18.63;;
41233;SDS011;26968;42.686;23.352;2023-12-04T18:33:48;33.17;;;15.43;;
41233;SDS011;26968;42.686;23.352;2023-12-04T18:36:14;46.75;;;17.20;;
41233;SDS011;26968;42.686;23.352;2023-12-04T18:41:12;45.17;;;16.80;;
41233;SDS011;26968;42.686;23.352;2023-12-04T18:43:38;39.80;;;16.83;;
41233;SDS011;26968;42.686;23.352;2023-12-04T18:46:04;42.13;;;19.42;;
41233;SDS011;26968;42.686;23.352;2023-12-04T18:48:30;43.13;;;17.83;;
41233;SDS011;26968;42.686;23.352;2023-12-04T18:50:57;44.53;;;18.83;;
41233;SDS011;26968;42.686;23.352;2023-12-04T18:53:23;50.90;;;20.17;;
41233;SDS011;26968;42.686;23.352;2023-12-04T18:55:49;45.72;;;19.00;;
41233;SDS011;26968;42.686;23.352;2023-12-04T18:58:14;49.10;;;18.77;;
41233;SDS011;26968;42.686;23.352;2023-12-04T19:00:40;50.60;;;19.83;;
41233;SDS011;26968;42.686;23.352;2023-12-04T19:03:06;58.53;;;20.40;;
41233;SDS011;26968;42.686;23.352;2023-12-04T19:05:31;53.92;;;20.55;;
41233;SDS011;26968;42.686;23.352;2023-12-04T19:07:57;42.53;;;18.95;;
41233;SDS011;26968;42.686;23.352;2023-12-04T19:10:22;45.13;;;18.10;;
41233;SDS011;26968;42.686;23.352;2023-12-04T19:12:48;62.35;;;22.85;;
41233;SDS011;26968;42.686;23.352;2023-12-04T19:15:13;55.97;;;20.48;;
41233;SDS011;26968;42.686;23.352;2023-12-04T19:17:39;56.05;;;21.95;;
41233;SDS011;26968;42.686;23.352;2023-12-04T19:20:05;51.20;;;20.92;;
41233;SDS011;26968;42.686;23.352;2023-12-04T19:22:31;55.13;;;21.20;;